createdAt,value
2023-05-12T00:00:42.245Z,39.45
2023-05-12T00:03:09.365Z,41.83
2023-05-12T00:05:36.362Z,38.83
2023-05-12T00:08:03.342Z,41.05
2023-05-12T00:10:30.350Z,46.67
2023-05-12T00:12:57.455Z,38.60
2023-05-12T00:15:24.427Z,41.65
2023-05-12T00:17:52.467Z,40.45
2023-05-12T00:20:19.879Z,59.53
2023-05-12T00:22:47.034Z,35.90
2023-05-12T00:25:14.121Z,40.97
2023-05-12T00:27:41.143Z,42.40
2023-05-12T00:30:08.760Z,40.45
2023-05-12T00:32:35.863Z,37.92
2023-05-12T00:35:02.984Z,35.78
2023-05-12T00:37:30.071Z,42.08
2023-05-12T00:39:57.041Z,41.38
2023-05-12T00:42:23.981Z,44.47
2023-05-12T00:44:50.896Z,37.10
2023-05-12T00:47:20.191Z,37.63
2023-05-12T00:49:47.264Z,29.48
2023-05-12T00:52:14.149Z,35.83
2023-05-12T00:54:43.824Z,29.50
2023-05-12T00:57:11.602Z,34.38
2023-05-12T00:59:38.619Z,35.38
2023-05-12T01:02:07.232Z,33.33
2023-05-12T01:04:39.725Z,38.72
2023-05-12T01:07:12.495Z,45.72
2023-05-12T01:09:39.480Z,35.72
2023-05-12T01:12:06.776Z,33.20
2023-05-12T01:14:34.291Z,30.73
2023-05-12T01:17:03.710Z,35.95
2023-05-12T01:19:50.369Z,38.08
2023-05-12T01:22:18.154Z,63.85
2023-05-12T01:25:09.787Z,35.88
2023-05-12T01:27:39.839Z,33.17
2023-05-12T01:30:07.929Z,32.72
2023-05-12T01:32:35.775Z,42.70
2023-05-12T01:35:03.132Z,28.10
2023-05-12T01:37:30.138Z,36.53
2023-05-12T01:39:57.110Z,39.03
2023-05-12T01:42:24.150Z,40.78
2023-05-12T01:44:51.128Z,34.42
2023-05-12T01:47:18.092Z,42.20
2023-05-12T01:49:45.842Z,32.67
2023-05-12T01:52:12.977Z,45.95
2023-05-12T01:54:40.079Z,47.78
2023-05-12T01:57:07.015Z,43.78
2023-05-12T01:59:34.029Z,53.63
2023-05-12T02:02:01.056Z,35.58
2023-05-12T02:04:28.029Z,38.55
2023-05-12T02:06:54.950Z,41.85
2023-05-12T02:09:22.922Z,40.58
2023-05-12T02:11:49.856Z,50.42
2023-05-12T02:14:16.836Z,37.50
2023-05-12T02:16:44.052Z,46.00
2023-05-12T02:19:11.065Z,47.95
2023-05-12T02:21:38.066Z,45.05
2023-05-12T02:24:05.150Z,44.53
2023-05-12T02:26:32.153Z,50.47
2023-05-12T02:28:59.063Z,58.75
2023-05-12T02:31:26.109Z,45.42
2023-05-12T02:33:53.145Z,46.60
2023-05-12T02:36:20.209Z,55.47
2023-05-12T02:38:47.169Z,38.30
2023-05-12T02:41:14.110Z,42.65
2023-05-12T02:43:41.115Z,57.17
2023-05-12T02:46:08.574Z,43.28
2023-05-12T02:48:35.737Z,48.67
2023-05-12T02:51:02.718Z,52.58
2023-05-12T02:53:29.719Z,44.00
2023-05-12T02:55:56.882Z,43.80
2023-05-12T02:58:23.839Z,46.67
2023-05-12T03:00:59.813Z,47.92
2023-05-12T03:03:34.105Z,44.83
2023-05-12T03:06:01.188Z,53.33
2023-05-12T03:08:28.048Z,51.72
2023-05-12T03:10:55.047Z,52.28
2023-05-12T03:13:22.353Z,56.17
2023-05-12T03:15:49.355Z,40.45
2023-05-12T03:18:16.248Z,55.25
2023-05-12T03:20:43.523Z,55.70
2023-05-12T03:23:10.548Z,53.92
2023-05-12T03:25:37.641Z,56.08
2023-05-12T03:28:05.513Z,64.70
2023-05-12T03:30:33.276Z,49.20
2023-05-12T03:33:00.333Z,47.55
2023-05-12T03:35:27.369Z,57.65
2023-05-12T03:37:54.372Z,51.83
2023-05-12T03:40:21.629Z,56.47
2023-05-12T03:42:48.878Z,48.88
2023-05-12T03:45:16.530Z,50.58
2023-05-12T03:47:43.813Z,54.17
2023-05-12T03:50:11.242Z,64.68
2023-05-12T03:52:38.677Z,49.92
2023-05-12T03:55:07.185Z,52.38
2023-05-12T03:57:36.453Z,60.10
2023-05-12T04:00:04.905Z,55.15
2023-05-12T04:02:32.066Z,52.85
2023-05-12T04:04:59.037Z,48.40
2023-05-12T04:07:26.372Z,68.35
2023-05-12T04:09:53.278Z,53.75
2023-05-12T04:12:20.249Z,56.55
2023-05-12T04:14:48.239Z,49.95
2023-05-12T04:17:15.353Z,63.47
2023-05-12T04:19:42.817Z,64.47
2023-05-12T04:22:09.832Z,56.28
2023-05-12T04:24:38.768Z,68.88
2023-05-12T04:27:07.245Z,67.45
2023-05-12T04:29:35.051Z,52.42
2023-05-12T04:32:02.053Z,72.10
2023-05-12T04:34:29.039Z,62.50
2023-05-12T04:36:56.006Z,72.72
2023-05-12T04:39:23.024Z,50.10
2023-05-12T04:41:49.986Z,55.13
2023-05-12T04:44:17.025Z,51.80
2023-05-12T04:46:44.189Z,63.25
2023-05-12T04:49:11.468Z,56.97
2023-05-12T04:51:43.010Z,69.00
2023-05-12T04:54:10.860Z,62.60
2023-05-12T04:56:37.821Z,55.42
2023-05-12T04:59:04.960Z,58.17
2023-05-12T05:01:32.150Z,69.80
2023-05-12T05:03:59.220Z,58.20
2023-05-12T05:06:26.179Z,53.38
2023-05-12T05:08:53.377Z,50.83
2023-05-12T05:11:22.340Z,52.65
2023-05-12T05:13:49.399Z,58.45
2023-05-12T05:16:16.420Z,46.80
2023-05-12T05:18:46.628Z,56.25
2023-05-12T05:21:14.642Z,57.28
2023-05-12T05:23:42.484Z,55.30
2023-05-12T05:26:09.636Z,57.25
2023-05-12T05:28:39.850Z,53.42
2023-05-12T05:31:07.687Z,58.25
2023-05-12T05:33:34.959Z,51.75
2023-05-12T05:36:02.080Z,55.42
2023-05-12T05:38:29.114Z,65.78
2023-05-12T05:40:56.319Z,53.85
2023-05-12T05:43:23.402Z,53.42
2023-05-12T05:45:50.854Z,62.25
2023-05-12T05:48:18.336Z,54.75
2023-05-12T05:50:45.610Z,51.42
2023-05-12T05:53:12.701Z,54.67
2023-05-12T05:55:39.667Z,52.03
2023-05-12T05:58:06.727Z,53.22
2023-05-12T06:00:33.788Z,58.13
2023-05-12T06:03:01.339Z,52.47
2023-05-12T06:05:28.886Z,53.60
2023-05-12T06:07:55.872Z,56.67
2023-05-12T06:10:22.955Z,58.05
2023-05-12T06:12:50.586Z,58.25
2023-05-12T06:15:19.248Z,46.83
2023-05-12T06:17:46.854Z,41.70
2023-05-12T06:20:14.460Z,45.55
2023-05-12T06:22:44.444Z,59.22
2023-05-12T06:25:11.608Z,41.38
2023-05-12T06:27:38.931Z,51.97
2023-05-12T06:30:07.655Z,47.58
2023-05-12T06:32:34.634Z,48.85
2023-05-12T06:35:07.709Z,64.18
2023-05-12T06:37:35.016Z,50.13
2023-05-12T06:40:02.168Z,50.22
2023-05-12T06:42:29.278Z,49.92
2023-05-12T06:44:56.325Z,51.97
2023-05-12T06:47:23.463Z,61.75
2023-05-12T06:49:50.568Z,53.17
2023-05-12T06:52:17.714Z,59.97
2023-05-12T06:54:44.946Z,50.55
2023-05-12T06:57:12.196Z,50.28
2023-05-12T06:59:39.235Z,53.03
2023-05-12T07:02:06.792Z,50.33
2023-05-12T07:04:34.310Z,56.00
2023-05-12T07:07:01.222Z,51.22
2023-05-12T07:09:28.663Z,45.17
2023-05-12T07:11:55.510Z,56.95
2023-05-12T07:14:22.442Z,47.35
2023-05-12T07:16:49.993Z,55.35
2023-05-12T07:19:16.881Z,51.58
2023-05-12T07:21:44.125Z,52.22
2023-05-12T07:24:11.173Z,49.50
2023-05-12T07:26:38.123Z,53.15
2023-05-12T07:29:06.851Z,54.85
2023-05-12T07:31:34.213Z,51.63
2023-05-12T07:34:01.313Z,49.85
2023-05-12T07:36:28.414Z,50.55
2023-05-12T07:38:55.326Z,53.35
2023-05-12T07:41:22.364Z,54.08
2023-05-12T07:43:49.217Z,49.47
2023-05-12T07:46:16.163Z,50.78
2023-05-12T07:48:43.127Z,48.17
2023-05-12T07:51:10.136Z,47.58
2023-05-12T07:53:37.668Z,42.22
2023-05-12T07:56:04.675Z,41.50
2023-05-12T07:58:31.607Z,39.50
2023-05-12T08:01:00.363Z,46.75
2023-05-12T08:03:27.564Z,45.08
2023-05-12T08:05:54.667Z,37.03
2023-05-12T08:08:21.719Z,47.25
2023-05-12T08:10:48.734Z,36.58
2023-05-12T08:13:15.925Z,44.30
2023-05-12T08:15:43.084Z,36.67
2023-05-12T08:18:10.191Z,43.08
2023-05-12T08:20:37.489Z,42.00
2023-05-12T08:23:04.519Z,41.90
2023-05-12T08:25:31.711Z,39.17
2023-05-12T08:27:59.834Z,38.50
2023-05-12T08:30:27.374Z,34.33
2023-05-12T08:32:57.734Z,36.10
2023-05-12T08:35:28.214Z,34.40
2023-05-12T08:37:55.296Z,28.70
2023-05-12T08:40:23.804Z,33.42
2023-05-12T08:42:56.823Z,35.83
2023-05-12T08:45:24.265Z,28.60
2023-05-12T08:47:53.902Z,33.53
2023-05-12T08:50:22.718Z,24.88
2023-05-12T08:52:51.448Z,28.20
2023-05-12T08:55:19.436Z,27.70
2023-05-12T08:57:48.567Z,21.45
2023-05-12T09:00:17.243Z,22.48
2023-05-12T09:02:52.946Z,29.27
2023-05-12T09:05:22.807Z,28.15
2023-05-12T09:07:50.853Z,22.10
2023-05-12T09:10:33.562Z,21.75
2023-05-12T09:13:23.705Z,19.42
2023-05-12T09:15:53.947Z,21.42
2023-05-12T09:18:21.145Z,25.00
2023-05-12T09:20:48.448Z,17.95
2023-05-12T09:23:16.672Z,20.40
2023-05-12T09:25:43.802Z,22.10
2023-05-12T09:28:11.132Z,17.33
2023-05-12T09:30:38.632Z,29.88
2023-05-12T09:33:14.878Z,20.00
2023-05-12T09:35:43.670Z,20.52
2023-05-12T09:38:12.872Z,18.65
2023-05-12T09:40:40.522Z,24.27
2023-05-12T09:43:08.296Z,23.85
2023-05-12T09:45:39.058Z,18.80
2023-05-12T09:48:13.830Z,19.23
2023-05-12T09:50:47.668Z,16.75
2023-05-12T09:53:17.889Z,17.42
2023-05-12T09:55:46.599Z,25.58
2023-05-12T09:58:20.649Z,18.73
2023-05-12T10:03:18.762Z,14.88
2023-05-12T10:06:00.935Z,18.27
2023-05-12T10:08:38.341Z,19.80
2023-05-12T10:11:07.012Z,17.35
2023-05-12T10:13:34.702Z,18.58
2023-05-12T10:16:02.773Z,15.73
2023-05-12T10:18:31.556Z,14.88
2023-05-12T10:20:59.436Z,20.08
2023-05-12T10:23:27.492Z,13.25
2023-05-12T10:25:58.635Z,14.80
2023-05-12T10:28:25.819Z,13.90
2023-05-12T10:30:54.025Z,14.45
2023-05-12T10:33:21.448Z,14.73
2023-05-12T10:35:49.753Z,14.98
2023-05-12T10:38:17.053Z,19.58
2023-05-12T10:40:58.328Z,15.57
2023-05-12T10:43:34.993Z,14.77
2023-05-12T10:46:16.763Z,13.63
2023-05-12T10:49:10.773Z,16.85
2023-05-12T10:51:37.820Z,13.45
2023-05-12T10:54:07.131Z,14.10
2023-05-12T10:56:40.270Z,11.98
2023-05-12T10:59:19.214Z,8.98
2023-05-12T11:02:04.485Z,18.95
2023-05-12T11:04:50.345Z,14.57
2023-05-12T11:07:22.288Z,11.38
2023-05-12T11:09:58.592Z,10.17
2023-05-12T11:12:33.411Z,13.23
2023-05-12T11:17:28.549Z,12.05
2023-05-12T11:19:55.936Z,13.32
2023-05-12T11:22:24.168Z,9.88
2023-05-12T11:24:52.885Z,10.02
2023-05-12T11:27:25.300Z,8.02
2023-05-12T11:30:00.340Z,10.50
2023-05-12T11:32:28.094Z,7.43
2023-05-12T13:31:07.773Z,3.10
2023-05-12T13:33:34.767Z,6.82
2023-05-12T13:36:01.634Z,5.75
2023-05-12T13:38:28.784Z,4.72
2023-05-12T13:40:57.202Z,3.88
2023-05-12T13:43:24.102Z,5.97
2023-05-12T13:45:51.328Z,7.30
2023-05-12T13:48:18.345Z,5.80
2023-05-12T13:50:45.196Z,4.07
2023-05-12T13:53:13.260Z,6.40
2023-05-12T13:55:41.331Z,3.55
2023-05-12T13:58:08.317Z,3.65
2023-05-12T14:00:35.362Z,10.35
2023-05-12T14:03:02.302Z,6.63
2023-05-12T14:05:29.327Z,8.10
2023-05-12T14:07:56.855Z,3.22
2023-05-12T14:10:24.142Z,3.70
2023-05-12T14:12:51.125Z,4.13
2023-05-12T14:17:48.104Z,10.63
2023-05-12T14:20:15.159Z,5.80
2023-05-12T14:22:42.178Z,4.53
2023-05-12T14:25:09.373Z,7.80
2023-05-12T14:27:36.445Z,3.97
2023-05-12T14:30:04.063Z,9.73
2023-05-12T14:32:31.164Z,3.40
2023-05-12T14:34:58.208Z,7.30
2023-05-12T14:37:25.404Z,4.47
2023-05-12T14:39:55.191Z,7.78
2023-05-12T14:42:22.155Z,6.47
2023-05-12T14:44:49.065Z,5.53
2023-05-12T14:47:16.297Z,4.25
2023-05-12T14:49:45.426Z,6.13
2023-05-12T14:52:12.660Z,9.30
2023-05-12T14:54:39.580Z,3.00
2023-05-12T14:57:06.944Z,3.67
2023-05-12T14:59:34.048Z,8.70
2023-05-12T15:02:01.211Z,21.98
2023-05-12T15:04:28.288Z,9.23
2023-05-12T15:06:55.544Z,9.00
2023-05-12T15:09:22.499Z,4.40
2023-05-12T15:11:49.889Z,8.27
2023-05-12T15:14:16.989Z,5.68
2023-05-12T15:16:44.614Z,5.50
2023-05-12T15:19:11.704Z,3.45
2023-05-12T15:21:38.935Z,3.90
2023-05-12T15:24:06.448Z,6.82
2023-05-12T15:26:34.688Z,9.02
2023-05-12T15:29:03.172Z,6.18
2023-05-12T15:31:31.412Z,6.40
2023-05-12T15:33:58.346Z,7.35
2023-05-12T15:36:25.303Z,5.05
2023-05-12T15:38:53.698Z,5.93
2023-05-12T15:41:20.671Z,4.38
2023-05-12T15:43:47.732Z,4.97
2023-05-12T15:46:15.068Z,11.32
2023-05-12T15:48:42.206Z,5.18
2023-05-12T15:51:09.427Z,6.60
2023-05-12T15:53:36.664Z,5.70
2023-05-12T15:56:05.221Z,8.25
2023-05-12T15:58:32.439Z,15.77
2023-05-12T16:00:59.607Z,9.85
2023-05-12T16:03:27.324Z,12.60
2023-05-12T16:05:54.262Z,8.38
2023-05-12T16:08:22.125Z,7.32
2023-05-12T16:10:49.500Z,11.18
2023-05-12T16:13:16.541Z,9.40
2023-05-12T16:15:43.495Z,11.57
2023-05-12T16:18:11.491Z,9.73
2023-05-12T16:20:39.120Z,14.63
2023-05-12T16:23:06.357Z,12.82
2023-05-12T16:25:33.405Z,10.50
2023-05-12T16:28:00.345Z,11.20
2023-05-12T16:30:27.605Z,10.15
2023-05-12T16:32:54.672Z,11.13
2023-05-12T16:35:22.280Z,11.85
2023-05-12T16:37:49.575Z,31.00
2023-05-12T16:40:16.691Z,15.60
2023-05-12T16:42:43.728Z,11.55
2023-05-12T16:45:11.281Z,17.67
2023-05-12T16:47:38.367Z,13.77
2023-05-12T16:50:06.176Z,11.93
2023-05-12T16:52:34.090Z,13.07
2023-05-12T16:55:01.026Z,13.90
2023-05-12T16:57:28.018Z,13.23
2023-05-12T16:59:54.913Z,18.92
2023-05-12T17:02:22.055Z,7.85
2023-05-12T17:04:49.322Z,9.55
2023-05-12T17:07:16.475Z,8.60
2023-05-12T17:09:43.436Z,9.43
2023-05-12T17:12:10.964Z,19.10
2023-05-12T17:14:37.951Z,22.00
2023-05-12T17:17:05.154Z,13.23
2023-05-12T17:19:32.381Z,12.18
2023-05-12T17:21:59.372Z,11.43
2023-05-12T17:24:26.880Z,9.07
2023-05-12T17:26:53.953Z,8.90
2023-05-12T17:29:20.806Z,13.90
2023-05-12T17:31:48.097Z,8.50
2023-05-12T17:34:15.112Z,12.25
2023-05-12T17:36:42.201Z,8.90
2023-05-12T17:39:09.233Z,10.45
2023-05-12T17:41:36.226Z,9.75
2023-05-12T17:44:03.254Z,7.25
2023-05-12T17:46:30.331Z,14.52
2023-05-12T17:48:57.377Z,8.85
2023-05-12T17:51:24.425Z,6.63
2023-05-12T17:53:51.286Z,8.55
2023-05-12T17:56:18.275Z,9.20
2023-05-12T17:58:45.345Z,7.65
2023-05-12T18:01:12.349Z,5.20
2023-05-12T18:03:39.366Z,5.20
2023-05-12T18:06:06.485Z,12.70
2023-05-12T18:08:33.427Z,3.15
2023-05-12T18:11:00.337Z,3.78
2023-05-12T18:13:27.372Z,7.00
2023-05-12T18:15:54.308Z,7.85
2023-05-12T18:18:21.427Z,9.48
2023-05-12T18:20:48.612Z,6.47
2023-05-12T18:23:15.512Z,4.35
2023-05-12T18:25:42.998Z,11.63
2023-05-12T18:28:10.212Z,5.50
2023-05-12T18:30:37.171Z,5.90
2023-05-12T18:33:05.317Z,9.32
2023-05-12T18:35:32.588Z,7.15
2023-05-12T18:37:59.503Z,4.20
2023-05-12T18:40:26.569Z,26.42
2023-05-12T18:42:53.527Z,4.22
2023-05-12T18:45:20.744Z,9.80
2023-05-12T18:47:47.845Z,7.82
2023-05-12T18:50:14.863Z,7.32
2023-05-12T18:52:42.904Z,5.75
2023-05-12T18:55:10.896Z,17.30
2023-05-12T18:57:38.444Z,7.93
2023-05-12T19:00:06.566Z,5.28
2023-05-12T19:02:36.734Z,5.88
2023-05-12T19:05:04.360Z,7.38
2023-05-12T19:07:31.456Z,4.55
2023-05-12T19:09:58.319Z,5.43
2023-05-12T19:12:25.350Z,8.52
2023-05-12T19:14:52.394Z,4.85
2023-05-12T19:17:19.352Z,4.55
2023-05-12T19:19:46.708Z,6.47
2023-05-12T19:22:13.637Z,7.30
2023-05-12T19:24:40.781Z,9.00
2023-05-12T19:27:08.239Z,7.68
2023-05-12T19:29:35.189Z,10.57
2023-05-12T19:32:02.298Z,4.82
2023-05-12T19:34:31.024Z,13.60
2023-05-12T19:37:00.818Z,8.07
2023-05-12T19:39:30.302Z,9.43
2023-05-12T19:41:57.190Z,6.72
2023-05-12T19:44:24.280Z,12.85
2023-05-12T19:46:51.721Z,8.68
2023-05-12T19:49:18.700Z,7.15
2023-05-12T19:51:45.839Z,10.02
2023-05-12T19:54:13.413Z,5.20
2023-05-12T19:56:40.477Z,5.13
2023-05-12T19:59:07.409Z,12.90
2023-05-12T20:01:34.419Z,6.22
2023-05-12T20:04:02.756Z,6.55
2023-05-12T20:06:30.739Z,8.00
2023-05-12T20:08:57.826Z,4.63
2023-05-12T20:11:25.117Z,9.60
2023-05-12T20:13:52.045Z,5.28
2023-05-12T20:16:19.013Z,11.23
2023-05-12T20:18:46.252Z,4.10
2023-05-12T20:21:13.295Z,8.70
2023-05-12T20:23:40.335Z,10.50
2023-05-12T20:26:07.227Z,6.47
2023-05-12T20:28:34.189Z,6.97
2023-05-12T20:31:01.205Z,6.13
2023-05-12T20:33:28.118Z,5.47
2023-05-12T20:35:55.460Z,9.93
2023-05-12T20:38:24.267Z,5.80
2023-05-12T20:40:51.194Z,8.75
2023-05-12T20:43:18.548Z,9.00
2023-05-12T20:45:45.811Z,6.15
2023-05-12T20:48:12.908Z,5.75
2023-05-12T20:50:39.900Z,10.13
2023-05-12T20:53:06.847Z,4.75
2023-05-12T20:55:33.805Z,4.20
2023-05-12T20:58:00.942Z,7.60
2023-05-12T21:00:27.855Z,7.38
2023-05-12T21:02:55.591Z,7.90
2023-05-12T21:05:22.767Z,8.75
2023-05-12T21:07:49.813Z,6.22
2023-05-12T21:10:16.817Z,9.73
2023-05-12T21:12:44.316Z,7.65
2023-05-12T21:15:12.011Z,4.78
2023-05-12T21:17:39.715Z,10.60
2023-05-12T21:20:10.907Z,8.77
2023-05-12T21:22:40.525Z,9.73
2023-05-12T21:25:07.983Z,4.85
2023-05-12T21:27:40.420Z,4.43
2023-05-12T21:30:10.890Z,8.50
2023-05-12T21:32:38.008Z,6.22
2023-05-12T21:35:05.883Z,9.00
2023-05-12T21:37:33.042Z,8.40
2023-05-12T21:40:00.265Z,15.07
2023-05-12T21:42:27.204Z,8.15
2023-05-12T21:44:54.083Z,10.95
2023-05-12T21:47:21.130Z,7.13
2023-05-12T21:49:48.134Z,6.95
2023-05-12T21:52:16.026Z,13.10
2023-05-12T21:54:42.950Z,13.13
2023-05-12T21:57:10.215Z,6.95
2023-05-12T21:59:37.097Z,12.75
2023-05-12T22:02:04.720Z,8.70
2023-05-12T22:04:31.607Z,9.63
2023-05-12T22:06:58.566Z,9.05
2023-05-12T22:09:25.377Z,9.23
2023-05-12T22:11:53.004Z,9.63
2023-05-12T22:14:20.887Z,7.50
2023-05-12T22:16:47.874Z,26.58
2023-05-12T22:19:14.875Z,6.97
2023-05-12T22:21:41.854Z,8.45
2023-05-12T22:24:09.592Z,7.40
2023-05-12T22:26:36.621Z,7.85
2023-05-12T22:29:03.523Z,6.43
2023-05-12T22:31:30.564Z,7.05
2023-05-12T22:33:57.662Z,11.00
2023-05-12T22:36:24.605Z,8.38
2023-05-12T22:38:51.543Z,9.35
2023-05-12T22:41:18.416Z,7.90
2023-05-12T22:43:45.388Z,13.63
2023-05-12T22:46:12.299Z,12.45
2023-05-12T22:48:39.740Z,7.40
2023-05-12T22:51:07.027Z,8.60
2023-05-12T22:53:36.222Z,7.38
2023-05-12T22:56:04.010Z,6.53
2023-05-12T22:58:31.443Z,10.23
2023-05-12T23:00:58.702Z,39.40
2023-05-12T23:03:25.934Z,12.23
2023-05-12T23:05:52.838Z,9.93
2023-05-12T23:08:19.773Z,7.28
2023-05-12T23:10:46.657Z,10.23
2023-05-12T23:13:13.665Z,8.05
2023-05-12T23:15:40.663Z,5.38
2023-05-12T23:18:07.651Z,10.70
2023-05-12T23:20:35.044Z,10.55
2023-05-12T23:23:02.120Z,5.88
2023-05-12T23:25:29.035Z,7.00
2023-05-12T23:27:55.993Z,12.88
2023-05-12T23:30:23.275Z,15.00
2023-05-12T23:32:50.729Z,11.18
2023-05-12T23:35:17.726Z,13.65
2023-05-12T23:37:44.647Z,11.70
2023-05-12T23:40:11.834Z,12.18
2023-05-12T23:42:38.748Z,9.32
2023-05-12T23:45:06.493Z,9.05
2023-05-12T23:47:33.463Z,9.48
2023-05-12T23:50:00.507Z,7.13
2023-05-12T23:52:27.371Z,7.55
2023-05-12T23:54:54.306Z,9.65
2023-05-12T23:57:21.251Z,14.15
2023-05-12T23:59:48.246Z,10.50
